sensor_id;sensor_type;location;lat;lon;timestamp;P1;durP1;ratioP1;P2;durP2;ratioP2
15629;SDS011;7914;50.842;0.166;2022-11-13T00:02:11;5.60;;;5.40;;
15629;SDS011;7914;50.842;0.166;2022-11-13T00:04:37;5.30;;;5.10;;
15629;SDS011;7914;50.842;0.166;2022-11-13T00:07:02;5.43;;;5.23;;
15629;SDS011;7914;50.842;0.166;2022-11-13T00:09:28;5.00;;;4.80;;
15629;SDS011;7914;50.842;0.166;2022-11-13T00:11:54;5.00;;;4.80;;
15629;SDS011;7914;50.842;0.166;2022-11-13T00:14:20;4.80;;;4.60;;
15629;SDS011;7914;50.842;0.166;2022-11-13T00:16:45;4.80;;;4.60;;
15629;SDS011;7914;50.842;0.166;2022-11-13T00:19:11;4.60;;;4.40;;
15629;SDS011;7914;50.842;0.166;2022-11-13T00:21:36;4.77;;;4.57;;
15629;SDS011;7914;50.842;0.166;2022-11-13T00:24:02;4.70;;;4.50;;
15629;SDS011;7914;50.842;0.166;2022-11-13T00:26:29;4.90;;;4.70;;
15629;SDS011;7914;50.842;0.166;2022-11-13T00:28:56;5.20;;;5.00;;
15629;SDS011;7914;50.842;0.166;2022-11-13T00:31:24;5.30;;;5.10;;
15629;SDS011;7914;50.842;0.166;2022-11-13T00:33:50;5.30;;;5.10;;
15629;SDS011;7914;50.842;0.166;2022-11-13T00:36:17;4.67;;;4.47;;
15629;SDS011;7914;50.842;0.166;2022-11-13T00:38:44;5.00;;;4.80;;
15629;SDS011;7914;50.842;0.166;2022-11-13T00:41:10;5.00;;;4.80;;
15629;SDS011;7914;50.842;0.166;2022-11-13T00:43:36;4.90;;;4.70;;
15629;SDS011;7914;50.842;0.166;2022-11-13T00:46:02;5.00;;;4.80;;
15629;SDS011;7914;50.842;0.166;2022-11-13T00:48:28;4.87;;;4.67;;
15629;SDS011;7914;50.842;0.166;2022-11-13T00:50:54;4.90;;;4.70;;
15629;SDS011;7914;50.842;0.166;2022-11-13T00:53:20;4.93;;;4.73;;
15629;SDS011;7914;50.842;0.166;2022-11-13T00:55:46;4.60;;;4.40;;
15629;SDS011;7914;50.842;0.166;2022-11-13T00:58:12;4.33;;;4.17;;
15629;SDS011;7914;50.842;0.166;2022-11-13T01:00:39;4.20;;;4.10;;
15629;SDS011;7914;50.842;0.166;2022-11-13T01:03:05;4.60;;;4.40;;
15629;SDS011;7914;50.842;0.166;2022-11-13T01:05:34;4.53;;;4.33;;
15629;SDS011;7914;50.842;0.166;2022-11-13T01:08:04;5.23;;;5.03;;
15629;SDS011;7914;50.842;0.166;2022-11-13T01:10:30;4.73;;;4.53;;
15629;SDS011;7914;50.842;0.166;2022-11-13T01:12:57;4.70;;;4.50;;
15629;SDS011;7914;50.842;0.166;2022-11-13T01:15:23;4.77;;;4.57;;
15629;SDS011;7914;50.842;0.166;2022-11-13T01:17:50;4.70;;;4.50;;
15629;SDS011;7914;50.842;0.166;2022-11-13T01:20:16;4.33;;;4.13;;
15629;SDS011;7914;50.842;0.166;2022-11-13T01:22:41;4.10;;;4.00;;
15629;SDS011;7914;50.842;0.166;2022-11-13T01:25:07;4.77;;;4.57;;
15629;SDS011;7914;50.842;0.166;2022-11-13T01:27:36;5.07;;;4.87;;
15629;SDS011;7914;50.842;0.166;2022-11-13T01:30:03;4.80;;;4.60;;
15629;SDS011;7914;50.842;0.166;2022-11-13T01:32:29;4.90;;;4.70;;
15629;SDS011;7914;50.842;0.166;2022-11-13T01:34:55;4.83;;;4.63;;
15629;SDS011;7914;50.842;0.166;2022-11-13T01:37:21;4.67;;;4.47;;
15629;SDS011;7914;50.842;0.166;2022-11-13T01:39:47;4.83;;;4.63;;
15629;SDS011;7914;50.842;0.166;2022-11-13T01:42:13;5.00;;;4.80;;
15629;SDS011;7914;50.842;0.166;2022-11-13T01:44:49;5.00;;;4.80;;
15629;SDS011;7914;50.842;0.166;2022-11-13T01:47:18;5.00;;;4.80;;
15629;SDS011;7914;50.842;0.166;2022-11-13T01:49:46;5.40;;;5.20;;
15629;SDS011;7914;50.842;0.166;2022-11-13T01:54:51;5.00;;;4.80;;
15629;SDS011;7914;50.842;0.166;2022-11-13T01:57:20;4.97;;;4.77;;
15629;SDS011;7914;50.842;0.166;2022-11-13T01:59:47;4.73;;;4.53;;
15629;SDS011;7914;50.842;0.166;2022-11-13T02:02:17;4.90;;;4.70;;
15629;SDS011;7914;50.842;0.166;2022-11-13T02:04:43;4.80;;;4.60;;
15629;SDS011;7914;50.842;0.166;2022-11-13T02:07:10;4.70;;;4.50;;
15629;SDS011;7914;50.842;0.166;2022-11-13T02:09:39;4.63;;;4.43;;
15629;SDS011;7914;50.842;0.166;2022-11-13T02:12:11;4.97;;;4.77;;
15629;SDS011;7914;50.842;0.166;2022-11-13T02:14:45;4.57;;;4.37;;
15629;SDS011;7914;50.842;0.166;2022-11-13T02:17:14;4.57;;;4.37;;
15629;SDS011;7914;50.842;0.166;2022-11-13T02:19:54;4.60;;;4.40;;
15629;SDS011;7914;50.842;0.166;2022-11-13T02:25:08;4.40;;;4.20;;
15629;SDS011;7914;50.842;0.166;2022-11-13T02:27:37;4.80;;;4.60;;
15629;SDS011;7914;50.842;0.166;2022-11-13T02:32:48;4.80;;;4.60;;
15629;SDS011;7914;50.842;0.166;2022-11-13T02:35:48;4.90;;;4.70;;
15629;SDS011;7914;50.842;0.166;2022-11-13T02:38:07;4.40;;;4.20;;
15629;SDS011;7914;50.842;0.166;2022-11-13T02:40:32;4.73;;;4.53;;
15629;SDS011;7914;50.842;0.166;2022-11-13T02:42:58;4.93;;;4.73;;
15629;SDS011;7914;50.842;0.166;2022-11-13T02:45:24;5.00;;;4.80;;
15629;SDS011;7914;50.842;0.166;2022-11-13T02:47:50;4.80;;;4.60;;
15629;SDS011;7914;50.842;0.166;2022-11-13T02:50:16;5.30;;;5.10;;
15629;SDS011;7914;50.842;0.166;2022-11-13T02:52:42;4.70;;;4.50;;
15629;SDS011;7914;50.842;0.166;2022-11-13T02:55:08;4.57;;;4.37;;
15629;SDS011;7914;50.842;0.166;2022-11-13T02:57:34;4.90;;;4.70;;
15629;SDS011;7914;50.842;0.166;2022-11-13T02:59:59;4.20;;;4.10;;
15629;SDS011;7914;50.842;0.166;2022-11-13T03:02:25;4.00;;;3.90;;
15629;SDS011;7914;50.842;0.166;2022-11-13T03:04:51;4.70;;;4.50;;
15629;SDS011;7914;50.842;0.166;2022-11-13T03:07:16;4.67;;;4.47;;
15629;SDS011;7914;50.842;0.166;2022-11-13T03:09:42;4.80;;;4.60;;
15629;SDS011;7914;50.842;0.166;2022-11-13T03:12:08;4.67;;;4.47;;
15629;SDS011;7914;50.842;0.166;2022-11-13T03:14:34;4.60;;;4.40;;
15629;SDS011;7914;50.842;0.166;2022-11-13T03:17:00;4.40;;;4.20;;
15629;SDS011;7914;50.842;0.166;2022-11-13T03:19:26;4.57;;;4.37;;
15629;SDS011;7914;50.842;0.166;2022-11-13T03:21:52;4.83;;;4.63;;
15629;SDS011;7914;50.842;0.166;2022-11-13T03:24:18;5.03;;;4.83;;
15629;SDS011;7914;50.842;0.166;2022-11-13T03:26:43;5.30;;;5.10;;
15629;SDS011;7914;50.842;0.166;2022-11-13T03:29:09;4.93;;;4.73;;
15629;SDS011;7914;50.842;0.166;2022-11-13T03:31:35;4.80;;;4.60;;
15629;SDS011;7914;50.842;0.166;2022-11-13T03:34:01;4.90;;;4.70;;
15629;SDS011;7914;50.842;0.166;2022-11-13T03:36:27;4.90;;;4.70;;
15629;SDS011;7914;50.842;0.166;2022-11-13T03:38:52;5.13;;;4.93;;
15629;SDS011;7914;50.842;0.166;2022-11-13T03:41:18;5.40;;;5.20;;
15629;SDS011;7914;50.842;0.166;2022-11-13T03:43:46;5.20;;;5.00;;
15629;SDS011;7914;50.842;0.166;2022-11-13T03:46:11;5.00;;;4.80;;
15629;SDS011;7914;50.842;0.166;2022-11-13T03:48:37;5.20;;;5.00;;
15629;SDS011;7914;50.842;0.166;2022-11-13T03:51:03;4.63;;;4.43;;
15629;SDS011;7914;50.842;0.166;2022-11-13T03:53:29;4.67;;;4.47;;
15629;SDS011;7914;50.842;0.166;2022-11-13T03:55:54;4.97;;;4.77;;
15629;SDS011;7914;50.842;0.166;2022-11-13T03:58:20;4.80;;;4.60;;
15629;SDS011;7914;50.842;0.166;2022-11-13T04:00:46;4.90;;;4.70;;
15629;SDS011;7914;50.842;0.166;2022-11-13T04:03:12;4.37;;;4.17;;
15629;SDS011;7914;50.842;0.166;2022-11-13T04:05:38;4.80;;;4.60;;
15629;SDS011;7914;50.842;0.166;2022-11-13T04:08:05;5.23;;;5.03;;
15629;SDS011;7914;50.842;0.166;2022-11-13T04:10:31;5.27;;;5.07;;
15629;SDS011;7914;50.842;0.166;2022-11-13T04:12:57;5.17;;;4.97;;
15629;SDS011;7914;50.842;0.166;2022-11-13T04:15:23;5.20;;;5.00;;
15629;SDS011;7914;50.842;0.166;2022-11-13T04:17:48;5.37;;;5.17;;
15629;SDS011;7914;50.842;0.166;2022-11-13T04:20:14;4.90;;;4.70;;
15629;SDS011;7914;50.842;0.166;2022-11-13T04:22:41;5.47;;;5.27;;
15629;SDS011;7914;50.842;0.166;2022-11-13T04:25:06;5.00;;;4.80;;
15629;SDS011;7914;50.842;0.166;2022-11-13T04:27:33;5.30;;;5.10;;
15629;SDS011;7914;50.842;0.166;2022-11-13T04:29:59;4.73;;;4.53;;
15629;SDS011;7914;50.842;0.166;2022-11-13T04:32:25;4.87;;;4.67;;
15629;SDS011;7914;50.842;0.166;2022-11-13T04:34:51;4.00;;;3.90;;
15629;SDS011;7914;50.842;0.166;2022-11-13T04:37:16;4.50;;;4.30;;
15629;SDS011;7914;50.842;0.166;2022-11-13T04:39:42;4.67;;;4.47;;
15629;SDS011;7914;50.842;0.166;2022-11-13T04:42:08;4.97;;;4.77;;
15629;SDS011;7914;50.842;0.166;2022-11-13T04:44:53;4.80;;;4.60;;
15629;SDS011;7914;50.842;0.166;2022-11-13T04:47:19;4.80;;;4.60;;
15629;SDS011;7914;50.842;0.166;2022-11-13T04:49:45;4.50;;;4.30;;
15629;SDS011;7914;50.842;0.166;2022-11-13T04:52:10;4.50;;;4.30;;
15629;SDS011;7914;50.842;0.166;2022-11-13T04:54:37;4.27;;;4.10;;
15629;SDS011;7914;50.842;0.166;2022-11-13T04:57:03;4.40;;;4.20;;
15629;SDS011;7914;50.842;0.166;2022-11-13T04:59:28;4.03;;;3.93;;
15629;SDS011;7914;50.842;0.166;2022-11-13T05:01:54;4.50;;;4.30;;
15629;SDS011;7914;50.842;0.166;2022-11-13T05:04:20;4.13;;;4.03;;
15629;SDS011;7914;50.842;0.166;2022-11-13T05:06:46;4.97;;;4.77;;
15629;SDS011;7914;50.842;0.166;2022-11-13T05:09:12;4.83;;;4.63;;
15629;SDS011;7914;50.842;0.166;2022-11-13T05:11:38;4.80;;;4.60;;
15629;SDS011;7914;50.842;0.166;2022-11-13T05:14:04;4.20;;;4.10;;
15629;SDS011;7914;50.842;0.166;2022-11-13T05:16:29;4.47;;;4.27;;
15629;SDS011;7914;50.842;0.166;2022-11-13T05:18:59;4.50;;;4.30;;
15629;SDS011;7914;50.842;0.166;2022-11-13T05:21:24;4.27;;;4.13;;
15629;SDS011;7914;50.842;0.166;2022-11-13T05:23:50;3.73;;;3.63;;
15629;SDS011;7914;50.842;0.166;2022-11-13T05:26:16;3.93;;;3.83;;
15629;SDS011;7914;50.842;0.166;2022-11-13T05:28:42;4.00;;;3.90;;
15629;SDS011;7914;50.842;0.166;2022-11-13T05:31:17;4.60;;;4.40;;
15629;SDS011;7914;50.842;0.166;2022-11-13T05:33:43;4.50;;;4.30;;
15629;SDS011;7914;50.842;0.166;2022-11-13T05:36:10;4.20;;;4.10;;
15629;SDS011;7914;50.842;0.166;2022-11-13T05:38:38;4.63;;;4.43;;
15629;SDS011;7914;50.842;0.166;2022-11-13T05:41:05;4.20;;;4.10;;
15629;SDS011;7914;50.842;0.166;2022-11-13T05:43:35;4.63;;;4.43;;
15629;SDS011;7914;50.842;0.166;2022-11-13T05:46:09;4.53;;;4.33;;
15629;SDS011;7914;50.842;0.166;2022-11-13T05:48:35;4.90;;;4.70;;
15629;SDS011;7914;50.842;0.166;2022-11-13T05:51:02;4.13;;;4.03;;
15629;SDS011;7914;50.842;0.166;2022-11-13T05:53:28;4.17;;;4.07;;
15629;SDS011;7914;50.842;0.166;2022-11-13T05:55:58;4.10;;;4.00;;
15629;SDS011;7914;50.842;0.166;2022-11-13T05:58:25;4.00;;;3.90;;
15629;SDS011;7914;50.842;0.166;2022-11-13T06:00:52;4.20;;;4.07;;
15629;SDS011;7914;50.842;0.166;2022-11-13T06:03:17;3.97;;;3.87;;
15629;SDS011;7914;50.842;0.166;2022-11-13T06:05:43;4.47;;;4.27;;
15629;SDS011;7914;50.842;0.166;2022-11-13T06:08:08;3.77;;;3.67;;
15629;SDS011;7914;50.842;0.166;2022-11-13T06:10:34;4.20;;;4.07;;
15629;SDS011;7914;50.842;0.166;2022-11-13T06:13:00;4.13;;;4.03;;
15629;SDS011;7914;50.842;0.166;2022-11-13T06:15:25;3.80;;;3.70;;
15629;SDS011;7914;50.842;0.166;2022-11-13T06:17:51;4.00;;;3.90;;
15629;SDS011;7914;50.842;0.166;2022-11-13T06:20:17;4.10;;;4.00;;
15629;SDS011;7914;50.842;0.166;2022-11-13T06:22:42;3.67;;;3.57;;
15629;SDS011;7914;50.842;0.166;2022-11-13T06:25:08;4.10;;;4.00;;
15629;SDS011;7914;50.842;0.166;2022-11-13T06:27:33;3.60;;;3.50;;
15629;SDS011;7914;50.842;0.166;2022-11-13T06:29:59;3.90;;;3.80;;
15629;SDS011;7914;50.842;0.166;2022-11-13T06:32:25;3.30;;;3.20;;
15629;SDS011;7914;50.842;0.166;2022-11-13T06:34:50;3.40;;;3.30;;
15629;SDS011;7914;50.842;0.166;2022-11-13T06:37:16;3.37;;;3.27;;
15629;SDS011;7914;50.842;0.166;2022-11-13T06:39:42;3.47;;;3.37;;
15629;SDS011;7914;50.842;0.166;2022-11-13T06:42:07;3.63;;;3.53;;
15629;SDS011;7914;50.842;0.166;2022-11-13T06:44:33;4.00;;;3.90;;
15629;SDS011;7914;50.842;0.166;2022-11-13T06:46:59;4.00;;;3.90;;
15629;SDS011;7914;50.842;0.166;2022-11-13T06:49:24;3.73;;;3.63;;
15629;SDS011;7914;50.842;0.166;2022-11-13T06:51:50;4.00;;;3.90;;
15629;SDS011;7914;50.842;0.166;2022-11-13T06:54:16;4.07;;;3.97;;
15629;SDS011;7914;50.842;0.166;2022-11-13T06:56:41;4.10;;;4.00;;
15629;SDS011;7914;50.842;0.166;2022-11-13T06:59:09;3.83;;;3.73;;
15629;SDS011;7914;50.842;0.166;2022-11-13T07:01:35;4.33;;;4.13;;
15629;SDS011;7914;50.842;0.166;2022-11-13T07:04:01;3.70;;;3.60;;
15629;SDS011;7914;50.842;0.166;2022-11-13T07:06:28;4.67;;;4.47;;
15629;SDS011;7914;50.842;0.166;2022-11-13T07:08:54;3.90;;;3.80;;
15629;SDS011;7914;50.842;0.166;2022-11-13T07:11:20;4.10;;;4.00;;
15629;SDS011;7914;50.842;0.166;2022-11-13T07:13:47;4.27;;;4.10;;
15629;SDS011;7914;50.842;0.166;2022-11-13T07:16:14;4.90;;;4.70;;
15629;SDS011;7914;50.842;0.166;2022-11-13T07:18:40;4.57;;;4.37;;
15629;SDS011;7914;50.842;0.166;2022-11-13T07:21:07;4.87;;;4.67;;
15629;SDS011;7914;50.842;0.166;2022-11-13T07:23:34;4.83;;;4.63;;
15629;SDS011;7914;50.842;0.166;2022-11-13T07:26:02;4.60;;;4.40;;
15629;SDS011;7914;50.842;0.166;2022-11-13T07:28:28;4.83;;;4.63;;
15629;SDS011;7914;50.842;0.166;2022-11-13T07:30:56;4.47;;;4.27;;
15629;SDS011;7914;50.842;0.166;2022-11-13T07:33:22;4.83;;;4.63;;
15629;SDS011;7914;50.842;0.166;2022-11-13T07:35:48;4.93;;;4.73;;
15629;SDS011;7914;50.842;0.166;2022-11-13T07:38:14;4.60;;;4.40;;
15629;SDS011;7914;50.842;0.166;2022-11-13T07:40:39;4.87;;;4.67;;
15629;SDS011;7914;50.842;0.166;2022-11-13T07:43:05;4.23;;;4.07;;
15629;SDS011;7914;50.842;0.166;2022-11-13T07:45:31;4.60;;;4.40;;
15629;SDS011;7914;50.842;0.166;2022-11-13T07:48:00;4.70;;;4.50;;
15629;SDS011;7914;50.842;0.166;2022-11-13T07:50:27;4.93;;;4.73;;
15629;SDS011;7914;50.842;0.166;2022-11-13T07:52:55;4.47;;;4.27;;
15629;SDS011;7914;50.842;0.166;2022-11-13T07:55:22;4.50;;;4.30;;
15629;SDS011;7914;50.842;0.166;2022-11-13T07:57:47;4.70;;;4.50;;
15629;SDS011;7914;50.842;0.166;2022-11-13T08:00:13;4.60;;;4.40;;
15629;SDS011;7914;50.842;0.166;2022-11-13T08:02:39;4.67;;;4.47;;
15629;SDS011;7914;50.842;0.166;2022-11-13T08:05:05;5.20;;;5.00;;
15629;SDS011;7914;50.842;0.166;2022-11-13T08:07:31;4.70;;;4.50;;
15629;SDS011;7914;50.842;0.166;2022-11-13T08:09:56;4.83;;;4.63;;
15629;SDS011;7914;50.842;0.166;2022-11-13T08:12:22;4.67;;;4.47;;
15629;SDS011;7914;50.842;0.166;2022-11-13T08:14:48;4.40;;;4.20;;
15629;SDS011;7914;50.842;0.166;2022-11-13T08:17:14;4.23;;;4.10;;
15629;SDS011;7914;50.842;0.166;2022-11-13T08:19:39;3.70;;;3.60;;
15629;SDS011;7914;50.842;0.166;2022-11-13T08:22:05;4.40;;;4.20;;
15629;SDS011;7914;50.842;0.166;2022-11-13T08:24:31;4.73;;;4.53;;
15629;SDS011;7914;50.842;0.166;2022-11-13T08:26:56;3.60;;;3.50;;
15629;SDS011;7914;50.842;0.166;2022-11-13T08:29:22;3.90;;;3.80;;
15629;SDS011;7914;50.842;0.166;2022-11-13T08:31:48;3.87;;;3.77;;
15629;SDS011;7914;50.842;0.166;2022-11-13T08:34:14;3.90;;;3.80;;
15629;SDS011;7914;50.842;0.166;2022-11-13T08:36:39;3.70;;;3.60;;
15629;SDS011;7914;50.842;0.166;2022-11-13T08:39:05;4.70;;;4.50;;
15629;SDS011;7914;50.842;0.166;2022-11-13T08:41:30;4.13;;;4.03;;
15629;SDS011;7914;50.842;0.166;2022-11-13T08:43:56;3.63;;;3.53;;
15629;SDS011;7914;50.842;0.166;2022-11-13T08:46:22;3.50;;;3.40;;
15629;SDS011;7914;50.842;0.166;2022-11-13T08:48:47;4.07;;;3.97;;
15629;SDS011;7914;50.842;0.166;2022-11-13T08:51:13;3.80;;;3.70;;
15629;SDS011;7914;50.842;0.166;2022-11-13T08:53:39;3.90;;;3.80;;
15629;SDS011;7914;50.842;0.166;2022-11-13T08:56:04;3.70;;;3.60;;
15629;SDS011;7914;50.842;0.166;2022-11-13T08:58:30;4.10;;;4.00;;
15629;SDS011;7914;50.842;0.166;2022-11-13T09:00:59;3.60;;;3.50;;
15629;SDS011;7914;50.842;0.166;2022-11-13T09:03:25;3.30;;;3.20;;
15629;SDS011;7914;50.842;0.166;2022-11-13T09:05:51;3.17;;;3.07;;
15629;SDS011;7914;50.842;0.166;2022-11-13T09:08:17;3.50;;;3.40;;
15629;SDS011;7914;50.842;0.166;2022-11-13T09:10:42;3.83;;;3.73;;
15629;SDS011;7914;50.842;0.166;2022-11-13T09:13:08;3.30;;;3.20;;
15629;SDS011;7914;50.842;0.166;2022-11-13T09:15:36;3.70;;;3.60;;
15629;SDS011;7914;50.842;0.166;2022-11-13T09:18:03;3.80;;;3.70;;
15629;SDS011;7914;50.842;0.166;2022-11-13T09:20:30;3.43;;;3.33;;
15629;SDS011;7914;50.842;0.166;2022-11-13T09:23:00;3.70;;;3.60;;
15629;SDS011;7914;50.842;0.166;2022-11-13T09:25:28;3.50;;;3.40;;
15629;SDS011;7914;50.842;0.166;2022-11-13T09:27:56;3.40;;;3.30;;
15629;SDS011;7914;50.842;0.166;2022-11-13T09:30:23;3.50;;;3.40;;
15629;SDS011;7914;50.842;0.166;2022-11-13T09:32:53;3.60;;;3.50;;
15629;SDS011;7914;50.842;0.166;2022-11-13T09:35:20;3.80;;;3.70;;
15629;SDS011;7914;50.842;0.166;2022-11-13T09:40:37;3.20;;;3.10;;
15629;SDS011;7914;50.842;0.166;2022-11-13T09:43:05;3.80;;;3.70;;
15629;SDS011;7914;50.842;0.166;2022-11-13T09:45:35;3.37;;;3.27;;
15629;SDS011;7914;50.842;0.166;2022-11-13T09:48:23;3.43;;;3.33;;
15629;SDS011;7914;50.842;0.166;2022-11-13T09:50:49;3.50;;;3.40;;
15629;SDS011;7914;50.842;0.166;2022-11-13T09:53:17;3.40;;;3.30;;
15629;SDS011;7914;50.842;0.166;2022-11-13T10:01:14;3.43;;;3.33;;
15629;SDS011;7914;50.842;0.166;2022-11-13T10:03:49;3.47;;;3.37;;
15629;SDS011;7914;50.842;0.166;2022-11-13T10:06:24;3.53;;;3.43;;
15629;SDS011;7914;50.842;0.166;2022-11-13T10:09:24;3.53;;;3.43;;
15629;SDS011;7914;50.842;0.166;2022-11-13T10:11:58;3.47;;;3.37;;
15629;SDS011;7914;50.842;0.166;2022-11-13T10:22:04;3.30;;;3.20;;
15629;SDS011;7914;50.842;0.166;2022-11-13T10:24:41;3.53;;;3.43;;
15629;SDS011;7914;50.842;0.166;2022-11-13T10:27:11;3.30;;;3.20;;
15629;SDS011;7914;50.842;0.166;2022-11-13T10:29:38;3.17;;;3.07;;
15629;SDS011;7914;50.842;0.166;2022-11-13T10:34:46;3.53;;;3.43;;
15629;SDS011;7914;50.842;0.166;2022-11-13T10:37:40;3.70;;;3.60;;
15629;SDS011;7914;50.842;0.166;2022-11-13T10:40:32;3.30;;;3.20;;
15629;SDS011;7914;50.842;0.166;2022-11-13T10:43:11;3.23;;;3.13;;
15629;SDS011;7914;50.842;0.166;2022-11-13T10:45:41;3.40;;;3.30;;
15629;SDS011;7914;50.842;0.166;2022-11-13T10:48:24;3.10;;;3.00;;
15629;SDS011;7914;50.842;0.166;2022-11-13T10:50:52;3.17;;;3.07;;
15629;SDS011;7914;50.842;0.166;2022-11-13T10:53:20;3.40;;;3.30;;
15629;SDS011;7914;50.842;0.166;2022-11-13T10:55:46;3.60;;;3.50;;
15629;SDS011;7914;50.842;0.166;2022-11-13T10:58:16;3.47;;;3.37;;
15629;SDS011;7914;50.842;0.166;2022-11-13T11:00:43;3.80;;;3.70;;
15629;SDS011;7914;50.842;0.166;2022-11-13T11:03:17;3.20;;;3.10;;
15629;SDS011;7914;50.842;0.166;2022-11-13T11:05:57;3.50;;;3.40;;
15629;SDS011;7914;50.842;0.166;2022-11-13T11:08:31;3.17;;;3.07;;
15629;SDS011;7914;50.842;0.166;2022-11-13T11:11:01;3.50;;;3.40;;
15629;SDS011;7914;50.842;0.166;2022-11-13T11:14:03;2.90;;;2.80;;
15629;SDS011;7914;50.842;0.166;2022-11-13T11:16:34;3.10;;;3.00;;
15629;SDS011;7914;50.842;0.166;2022-11-13T11:19:03;3.03;;;2.93;;
15629;SDS011;7914;50.842;0.166;2022-11-13T11:21:33;3.10;;;3.00;;
15629;SDS011;7914;50.842;0.166;2022-11-13T11:24:13;2.93;;;2.83;;
15629;SDS011;7914;50.842;0.166;2022-11-13T11:26:49;2.80;;;2.70;;
15629;SDS011;7914;50.842;0.166;2022-11-13T11:29:25;3.47;;;3.37;;
15629;SDS011;7914;50.842;0.166;2022-11-13T11:32:18;3.53;;;3.43;;
15629;SDS011;7914;50.842;0.166;2022-11-13T11:34:59;3.07;;;2.97;;
15629;SDS011;7914;50.842;0.166;2022-11-13T11:40:26;3.00;;;2.90;;
15629;SDS011;7914;50.842;0.166;2022-11-13T11:46:00;2.60;;;2.50;;
15629;SDS011;7914;50.842;0.166;2022-11-13T11:48:26;2.67;;;2.57;;
15629;SDS011;7914;50.842;0.166;2022-11-13T11:51:01;2.93;;;2.83;;
15629;SDS011;7914;50.842;0.166;2022-11-13T11:56:16;2.90;;;2.80;;
15629;SDS011;7914;50.842;0.166;2022-11-13T12:01:52;2.90;;;2.80;;
15629;SDS011;7914;50.842;0.166;2022-11-13T12:09:48;2.70;;;2.60;;
15629;SDS011;7914;50.842;0.166;2022-11-13T12:12:43;2.70;;;2.60;;
15629;SDS011;7914;50.842;0.166;2022-11-13T12:24:33;2.80;;;2.70;;
15629;SDS011;7914;50.842;0.166;2022-11-13T12:34:40;2.83;;;2.73;;
15629;SDS011;7914;50.842;0.166;2022-11-13T12:37:11;2.57;;;2.47;;
15629;SDS011;7914;50.842;0.166;2022-11-13T12:47:40;2.43;;;2.33;;
15629;SDS011;7914;50.842;0.166;2022-11-13T12:50:25;2.60;;;2.50;;
15629;SDS011;7914;50.842;0.166;2022-11-13T12:53:11;3.00;;;2.90;;
15629;SDS011;7914;50.842;0.166;2022-11-13T12:55:54;2.70;;;2.60;;
15629;SDS011;7914;50.842;0.166;2022-11-13T12:58:30;2.47;;;2.37;;
15629;SDS011;7914;50.842;0.166;2022-11-13T13:01:00;2.40;;;2.30;;
15629;SDS011;7914;50.842;0.166;2022-11-13T13:04:00;2.60;;;2.50;;
15629;SDS011;7914;50.842;0.166;2022-11-13T13:09:58;2.63;;;2.53;;
15629;SDS011;7914;50.842;0.166;2022-11-13T13:15:37;2.77;;;2.67;;
15629;SDS011;7914;50.842;0.166;2022-11-13T13:20:56;2.50;;;2.40;;
15629;SDS011;7914;50.842;0.166;2022-11-13T13:23:29;2.80;;;2.70;;
15629;SDS011;7914;50.842;0.166;2022-11-13T13:26:04;2.90;;;2.80;;
15629;SDS011;7914;50.842;0.166;2022-11-13T13:28:30;3.00;;;2.90;;
15629;SDS011;7914;50.842;0.166;2022-11-13T13:34:29;3.30;;;3.20;;
15629;SDS011;7914;50.842;0.166;2022-11-13T13:47:50;3.00;;;2.90;;
15629;SDS011;7914;50.842;0.166;2022-11-13T13:50:25;3.30;;;3.20;;
15629;SDS011;7914;50.842;0.166;2022-11-13T13:52:55;3.00;;;2.90;;
15629;SDS011;7914;50.842;0.166;2022-11-13T13:55:26;3.20;;;3.10;;
15629;SDS011;7914;50.842;0.166;2022-11-13T13:57:56;3.23;;;3.13;;
15629;SDS011;7914;50.842;0.166;2022-11-13T14:00:23;3.10;;;3.00;;
15629;SDS011;7914;50.842;0.166;2022-11-13T14:02:50;2.90;;;2.80;;
15629;SDS011;7914;50.842;0.166;2022-11-13T14:07:54;2.93;;;2.83;;
15629;SDS011;7914;50.842;0.166;2022-11-13T14:10:22;3.20;;;3.10;;
15629;SDS011;7914;50.842;0.166;2022-11-13T14:12:50;2.87;;;2.77;;
15629;SDS011;7914;50.842;0.166;2022-11-13T14:17:44;2.97;;;2.87;;
15629;SDS011;7914;50.842;0.166;2022-11-13T14:20:10;2.90;;;2.80;;
15629;SDS011;7914;50.842;0.166;2022-11-13T14:22:37;3.00;;;2.90;;
15629;SDS011;7914;50.842;0.166;2022-11-13T14:25:04;3.40;;;3.30;;
15629;SDS011;7914;50.842;0.166;2022-11-13T14:27:39;2.83;;;2.73;;
15629;SDS011;7914;50.842;0.166;2022-11-13T14:30:05;2.77;;;2.67;;
15629;SDS011;7914;50.842;0.166;2022-11-13T14:32:48;3.00;;;2.90;;
15629;SDS011;7914;50.842;0.166;2022-11-13T14:35:21;2.90;;;2.80;;
15629;SDS011;7914;50.842;0.166;2022-11-13T14:37:49;3.00;;;2.90;;
15629;SDS011;7914;50.842;0.166;2022-11-13T14:40:27;3.23;;;3.13;;
15629;SDS011;7914;50.842;0.166;2022-11-13T14:42:56;3.30;;;3.20;;
15629;SDS011;7914;50.842;0.166;2022-11-13T14:45:25;3.50;;;3.40;;
15629;SDS011;7914;50.842;0.166;2022-11-13T14:52:56;3.03;;;2.93;;
15629;SDS011;7914;50.842;0.166;2022-11-13T14:55:52;3.17;;;3.07;;
15629;SDS011;7914;50.842;0.166;2022-11-13T15:00:58;3.40;;;3.30;;
15629;SDS011;7914;50.842;0.166;2022-11-13T15:03:36;3.20;;;3.10;;
15629;SDS011;7914;50.842;0.166;2022-11-13T15:06:01;3.10;;;3.00;;
15629;SDS011;7914;50.842;0.166;2022-11-13T15:08:27;3.50;;;3.40;;
15629;SDS011;7914;50.842;0.166;2022-11-13T15:10:54;3.37;;;3.27;;
15629;SDS011;7914;50.842;0.166;2022-11-13T15:13:21;3.53;;;3.43;;
15629;SDS011;7914;50.842;0.166;2022-11-13T15:15:47;4.00;;;3.90;;
15629;SDS011;7914;50.842;0.166;2022-11-13T15:18:15;3.90;;;3.80;;
15629;SDS011;7914;50.842;0.166;2022-11-13T15:20:42;3.60;;;3.50;;
15629;SDS011;7914;50.842;0.166;2022-11-13T15:23:10;3.50;;;3.40;;
15629;SDS011;7914;50.842;0.166;2022-11-13T15:25:39;3.97;;;3.87;;
15629;SDS011;7914;50.842;0.166;2022-11-13T15:28:04;3.30;;;3.20;;
15629;SDS011;7914;50.842;0.166;2022-11-13T15:30:30;3.40;;;3.30;;
15629;SDS011;7914;50.842;0.166;2022-11-13T15:32:56;3.70;;;3.60;;
15629;SDS011;7914;50.842;0.166;2022-11-13T15:35:26;3.80;;;3.70;;
15629;SDS011;7914;50.842;0.166;2022-11-13T15:37:53;3.63;;;3.53;;
15629;SDS011;7914;50.842;0.166;2022-11-13T15:40:18;3.70;;;3.60;;
15629;SDS011;7914;50.842;0.166;2022-11-13T15:42:44;3.80;;;3.70;;
15629;SDS011;7914;50.842;0.166;2022-11-13T15:45:14;3.70;;;3.60;;
15629;SDS011;7914;50.842;0.166;2022-11-13T15:47:40;4.43;;;4.23;;
15629;SDS011;7914;50.842;0.166;2022-11-13T15:50:06;4.17;;;4.03;;
15629;SDS011;7914;50.842;0.166;2022-11-13T15:52:37;3.93;;;3.83;;
15629;SDS011;7914;50.842;0.166;2022-11-13T15:55:05;3.93;;;3.83;;
15629;SDS011;7914;50.842;0.166;2022-11-13T15:57:48;4.10;;;4.00;;
15629;SDS011;7914;50.842;0.166;2022-11-13T16:00:18;4.03;;;3.93;;
15629;SDS011;7914;50.842;0.166;2022-11-13T16:02:54;3.87;;;3.77;;
15629;SDS011;7914;50.842;0.166;2022-11-13T16:05:21;4.17;;;4.03;;
15629;SDS011;7914;50.842;0.166;2022-11-13T16:07:49;4.40;;;4.20;;
15629;SDS011;7914;50.842;0.166;2022-11-13T16:10:18;3.90;;;3.80;;
15629;SDS011;7914;50.842;0.166;2022-11-13T16:12:45;3.90;;;3.80;;
15629;SDS011;7914;50.842;0.166;2022-11-13T16:15:14;4.03;;;3.93;;
15629;SDS011;7914;50.842;0.166;2022-11-13T16:17:42;4.23;;;4.10;;
15629;SDS011;7914;50.842;0.166;2022-11-13T16:20:12;4.13;;;4.03;;
15629;SDS011;7914;50.842;0.166;2022-11-13T16:22:40;4.00;;;3.90;;
15629;SDS011;7914;50.842;0.166;2022-11-13T16:25:08;4.07;;;3.97;;
15629;SDS011;7914;50.842;0.166;2022-11-13T16:27:36;4.70;;;4.50;;
15629;SDS011;7914;50.842;0.166;2022-11-13T16:30:02;4.53;;;4.33;;
15629;SDS011;7914;50.842;0.166;2022-11-13T16:32:28;4.57;;;4.37;;
15629;SDS011;7914;50.842;0.166;2022-11-13T16:34:54;4.17;;;4.07;;
15629;SDS011;7914;50.842;0.166;2022-11-13T16:37:20;3.97;;;3.87;;
15629;SDS011;7914;50.842;0.166;2022-11-13T16:39:47;3.67;;;3.57;;
15629;SDS011;7914;50.842;0.166;2022-11-13T16:42:14;3.90;;;3.80;;
15629;SDS011;7914;50.842;0.166;2022-11-13T16:44:40;3.77;;;3.67;;
15629;SDS011;7914;50.842;0.166;2022-11-13T16:47:20;3.50;;;3.40;;
15629;SDS011;7914;50.842;0.166;2022-11-13T16:49:47;3.90;;;3.80;;
15629;SDS011;7914;50.842;0.166;2022-11-13T16:52:13;4.10;;;4.00;;
15629;SDS011;7914;50.842;0.166;2022-11-13T16:54:39;3.63;;;3.53;;